createdAt,value
2023-05-19T00:01:40.580Z,9.27
2023-05-19T00:04:10.563Z,9.43
2023-05-19T00:06:39.993Z,9.02
2023-05-19T00:09:10.799Z,8.00
2023-05-19T00:11:41.095Z,8.55
2023-05-19T00:14:12.398Z,8.60
2023-05-19T00:16:43.113Z,8.90
2023-05-19T00:19:12.179Z,8.10
2023-05-19T00:21:41.581Z,8.25
2023-05-19T00:24:10.663Z,8.57
2023-05-19T00:26:39.873Z,7.70
2023-05-19T00:29:10.678Z,7.53
2023-05-19T00:31:39.799Z,7.30
2023-05-19T00:34:08.817Z,6.97
2023-05-19T00:36:37.914Z,6.70
2023-05-19T00:39:07.007Z,6.22
2023-05-19T00:41:36.200Z,6.20
2023-05-19T00:44:05.475Z,6.65
2023-05-19T00:46:36.510Z,5.95
2023-05-19T00:49:05.546Z,6.22
2023-05-19T00:51:34.698Z,6.22
2023-05-19T00:54:03.936Z,5.80
2023-05-19T00:56:33.814Z,6.18
2023-05-19T00:59:03.567Z,6.50
2023-05-19T01:01:33.192Z,6.40
2023-05-19T01:04:05.559Z,6.25
2023-05-19T01:06:35.668Z,6.50
2023-05-19T01:09:05.182Z,5.85
2023-05-19T01:11:34.264Z,6.50
2023-05-19T01:14:03.374Z,6.20
2023-05-19T01:16:37.517Z,6.40
2023-05-19T01:19:26.150Z,5.85
2023-05-19T01:22:23.998Z,6.80
2023-05-19T01:25:22.360Z,6.30
2023-05-19T01:28:21.173Z,6.88
2023-05-19T01:30:55.106Z,6.25
2023-05-19T01:33:25.593Z,6.78
2023-05-19T01:35:56.575Z,6.70
2023-05-19T01:38:29.518Z,6.80
2023-05-19T01:40:59.341Z,6.78
2023-05-19T01:43:28.841Z,6.03
2023-05-19T01:46:00.718Z,6.28
2023-05-19T01:48:31.704Z,6.82
2023-05-19T01:51:01.094Z,6.40
2023-05-19T01:53:30.132Z,6.55
2023-05-19T01:55:59.337Z,7.35
2023-05-19T01:58:38.726Z,7.53
2023-05-19T02:01:17.894Z,7.10
2023-05-19T02:04:04.097Z,7.10
2023-05-19T02:09:13.092Z,6.93
2023-05-19T02:14:17.446Z,5.75
2023-05-19T02:16:49.803Z,6.97
2023-05-19T02:19:30.801Z,6.28
2023-05-19T02:22:00.180Z,6.72
2023-05-19T02:24:29.240Z,6.13
2023-05-19T02:26:58.446Z,6.43
2023-05-19T02:29:27.493Z,6.30
2023-05-19T02:31:58.230Z,6.15
2023-05-19T02:34:27.657Z,6.75
2023-05-19T02:36:57.357Z,6.57
2023-05-19T02:39:27.208Z,6.65
2023-05-19T02:41:56.537Z,6.68
2023-05-19T02:44:25.529Z,6.78
2023-05-19T02:46:54.568Z,6.78
2023-05-19T02:49:25.314Z,6.35
2023-05-19T02:51:54.493Z,6.32
2023-05-19T02:54:23.495Z,6.78
2023-05-19T02:56:52.584Z,6.78
2023-05-19T02:59:21.948Z,7.05
2023-05-19T03:01:51.436Z,6.50
2023-05-19T03:04:21.077Z,6.88
2023-05-19T03:06:51.877Z,6.40
2023-05-19T03:09:21.388Z,6.68
2023-05-19T03:11:50.558Z,6.60
2023-05-19T03:14:19.563Z,6.22
2023-05-19T03:16:49.609Z,6.53
2023-05-19T03:19:19.092Z,6.40
2023-05-19T03:21:48.444Z,7.47
2023-05-19T03:24:19.119Z,7.28
2023-05-19T03:26:48.686Z,6.20
2023-05-19T03:29:17.722Z,7.20
2023-05-19T03:31:47.067Z,6.80
2023-05-19T03:34:16.252Z,7.10
2023-05-19T03:36:45.897Z,6.80
2023-05-19T03:39:15.150Z,7.53
2023-05-19T03:41:45.816Z,7.75
2023-05-19T03:44:14.818Z,7.15
2023-05-19T03:46:43.960Z,6.47
2023-05-19T03:49:13.063Z,6.88
2023-05-19T03:51:42.186Z,7.05
2023-05-19T03:54:11.336Z,7.05
2023-05-19T03:56:41.940Z,7.40
2023-05-19T03:59:13.223Z,7.30
2023-05-19T04:01:42.247Z,7.18
2023-05-19T04:04:11.835Z,7.28
2023-05-19T04:06:41.030Z,7.50
2023-05-19T04:09:14.425Z,7.18
2023-05-19T04:11:44.165Z,8.07
2023-05-19T04:14:14.884Z,6.90
2023-05-19T04:16:43.964Z,7.70
2023-05-19T04:19:13.055Z,7.30
2023-05-19T04:21:42.122Z,7.78
2023-05-19T04:24:11.269Z,7.25
2023-05-19T04:26:43.310Z,8.20
2023-05-19T04:29:14.809Z,8.10
2023-05-19T04:31:45.519Z,8.40
2023-05-19T04:34:14.616Z,8.57
2023-05-19T04:36:44.527Z,8.20
2023-05-19T04:39:13.598Z,7.93
2023-05-19T04:41:45.459Z,8.38
2023-05-19T04:44:19.008Z,7.97
2023-05-19T04:46:48.029Z,8.07
2023-05-19T04:49:17.113Z,8.38
2023-05-19T04:51:47.019Z,8.52
2023-05-19T04:54:16.284Z,8.32
2023-05-19T04:56:45.285Z,8.27
2023-05-19T04:59:15.965Z,8.93
2023-05-19T05:01:45.070Z,10.85
2023-05-19T05:04:14.145Z,9.75
2023-05-19T05:06:48.590Z,10.05
2023-05-19T05:09:18.361Z,9.25
2023-05-19T05:11:48.039Z,9.55
2023-05-19T05:14:19.541Z,9.43
2023-05-19T05:16:49.165Z,9.85
2023-05-19T05:19:18.726Z,9.85
2023-05-19T05:21:48.493Z,10.60
2023-05-19T05:24:18.348Z,10.27
2023-05-19T05:26:47.970Z,10.02
2023-05-19T05:29:18.703Z,10.23
2023-05-19T05:31:47.701Z,10.02
2023-05-19T05:34:17.035Z,10.40
2023-05-19T05:36:46.426Z,10.20
2023-05-19T05:39:15.521Z,10.70
2023-05-19T05:41:44.576Z,10.40
2023-05-19T05:44:13.686Z,10.48
2023-05-19T05:46:45.105Z,9.85
2023-05-19T05:49:14.772Z,10.25
2023-05-19T05:51:51.357Z,10.00
2023-05-19T05:54:34.018Z,11.07
2023-05-19T05:57:04.272Z,11.95
2023-05-19T05:59:34.783Z,10.32
2023-05-19T06:02:06.239Z,9.73
2023-05-19T06:04:35.511Z,10.73
2023-05-19T06:07:04.649Z,9.77
2023-05-19T06:09:33.825Z,10.02
2023-05-19T06:12:02.868Z,10.75
2023-05-19T06:14:31.958Z,11.27
2023-05-19T06:17:00.960Z,10.95
2023-05-19T06:19:31.804Z,11.02
2023-05-19T06:22:00.896Z,11.07
2023-05-19T06:24:29.917Z,11.27
2023-05-19T06:26:58.925Z,11.30
2023-05-19T06:29:27.920Z,12.15
2023-05-19T06:31:57.146Z,11.77
2023-05-19T06:34:26.663Z,12.23
2023-05-19T06:36:57.380Z,12.25
2023-05-19T06:39:27.409Z,11.93
2023-05-19T06:41:56.490Z,12.48
2023-05-19T06:44:25.646Z,13.23
2023-05-19T06:46:55.174Z,13.45
2023-05-19T06:49:24.848Z,13.32
2023-05-19T06:51:53.866Z,13.52
2023-05-19T06:54:24.686Z,13.85
2023-05-19T06:56:53.721Z,12.25
2023-05-19T06:59:23.914Z,13.82
2023-05-19T07:01:53.074Z,13.85
2023-05-19T07:04:22.164Z,13.80
2023-05-19T07:06:51.190Z,14.90
2023-05-19T07:09:20.198Z,14.75
2023-05-19T07:11:51.420Z,13.75
2023-05-19T07:14:21.813Z,14.95
2023-05-19T07:16:50.974Z,13.98
2023-05-19T07:19:20.759Z,15.32
2023-05-19T07:21:49.860Z,14.65
2023-05-19T07:24:18.932Z,14.13
2023-05-19T07:26:48.017Z,14.63
2023-05-19T07:29:18.676Z,15.52
2023-05-19T07:31:47.737Z,14.25
2023-05-19T07:34:16.785Z,14.18
2023-05-19T07:36:45.761Z,16.17
2023-05-19T07:39:15.090Z,14.48
2023-05-19T07:41:44.171Z,15.23
2023-05-19T07:44:13.429Z,16.35
2023-05-19T07:46:44.161Z,15.43
2023-05-19T07:49:13.199Z,14.95
2023-05-19T07:51:42.906Z,15.60
2023-05-19T07:54:12.117Z,15.00
2023-05-19T07:56:41.446Z,16.00
2023-05-19T07:59:10.548Z,16.33
2023-05-19T08:01:39.564Z,15.90
2023-05-19T08:04:12.698Z,16.48
2023-05-19T08:06:43.634Z,15.45
2023-05-19T08:09:12.939Z,16.80
2023-05-19T08:11:42.236Z,16.55
2023-05-19T08:14:11.704Z,15.43
2023-05-19T08:16:43.100Z,16.13
2023-05-19T08:19:13.852Z,15.30
2023-05-19T08:21:43.225Z,16.42
2023-05-19T08:24:12.493Z,15.98
2023-05-19T08:26:42.002Z,15.98
2023-05-19T08:29:11.066Z,16.35
2023-05-19T08:31:40.244Z,16.58
2023-05-19T08:34:09.318Z,15.82
2023-05-19T08:36:40.051Z,15.50
2023-05-19T08:39:09.083Z,17.05
2023-05-19T08:41:38.348Z,16.50
2023-05-19T08:44:07.577Z,16.30
2023-05-19T08:46:37.232Z,15.98
2023-05-19T08:49:13.303Z,15.70
2023-05-19T08:51:51.818Z,15.75
2023-05-19T08:54:23.338Z,16.98
2023-05-19T08:56:52.589Z,15.13
2023-05-19T08:59:22.519Z,17.50
2023-05-19T09:01:52.289Z,16.63
2023-05-19T09:04:21.725Z,16.48
2023-05-19T09:06:53.193Z,17.52
2023-05-19T09:09:22.190Z,15.82
2023-05-19T09:11:51.256Z,16.30
2023-05-19T09:14:20.328Z,16.48
2023-05-19T09:16:51.912Z,15.95
2023-05-19T09:19:22.149Z,16.33
2023-05-19T09:22:01.783Z,16.40
2023-05-19T09:24:31.418Z,16.98
2023-05-19T09:27:00.609Z,16.60
2023-05-19T09:29:29.762Z,16.83
2023-05-19T09:32:05.194Z,17.42
2023-05-19T09:34:34.313Z,16.88
2023-05-19T09:37:05.076Z,18.10
2023-05-19T09:39:34.218Z,17.23
2023-05-19T09:42:07.708Z,16.33
2023-05-19T09:44:37.367Z,18.85
2023-05-19T09:47:06.641Z,19.33
2023-05-19T09:49:35.969Z,19.73
2023-05-19T09:52:07.065Z,20.48
2023-05-19T09:54:36.411Z,19.88
2023-05-19T09:57:08.632Z,19.73
2023-05-19T09:59:39.917Z,21.33
2023-05-19T10:02:16.777Z,21.17
2023-05-19T10:04:46.056Z,20.27
2023-05-19T10:07:18.596Z,22.23
2023-05-19T10:09:49.992Z,21.40
2023-05-19T10:12:20.159Z,22.55
2023-05-19T10:14:50.067Z,20.75
2023-05-19T10:17:19.438Z,20.90
2023-05-19T10:19:51.775Z,19.92
2023-05-19T10:22:23.185Z,21.20
2023-05-19T10:24:52.254Z,21.58
2023-05-19T10:27:22.001Z,22.02
2023-05-19T10:29:52.986Z,22.58
2023-05-19T10:32:26.112Z,22.52
2023-05-19T10:35:24.364Z,21.98
2023-05-19T10:38:05.528Z,21.15
2023-05-19T10:40:38.689Z,23.00
2023-05-19T10:43:22.638Z,23.05
2023-05-19T10:45:55.459Z,22.63
2023-05-19T10:48:24.506Z,23.70
2023-05-19T10:50:56.594Z,22.85
2023-05-19T10:53:32.986Z,22.17
2023-05-19T10:56:04.816Z,22.65
2023-05-19T10:58:52.969Z,22.08
2023-05-19T11:01:25.552Z,22.38
2023-05-19T11:03:58.116Z,21.98
2023-05-19T11:06:29.049Z,22.08
2023-05-19T11:09:05.888Z,21.70
2023-05-19T11:11:47.668Z,21.95
2023-05-19T11:14:18.761Z,22.13
2023-05-19T11:16:50.209Z,22.63
2023-05-19T11:19:28.542Z,22.48
2023-05-19T11:21:58.897Z,22.83
2023-05-19T11:24:43.318Z,22.95
2023-05-19T11:27:32.220Z,21.88
2023-05-19T11:30:02.997Z,21.77
2023-05-19T11:32:34.393Z,21.90
2023-05-19T11:35:04.157Z,21.85
2023-05-19T11:37:34.182Z,22.95
2023-05-19T11:40:10.018Z,22.05
2023-05-19T11:42:39.107Z,21.63
2023-05-19T11:45:09.708Z,20.65
2023-05-19T11:47:50.737Z,21.00
2023-05-19T11:50:28.263Z,21.27
2023-05-19T11:52:58.498Z,21.38
2023-05-19T11:55:29.378Z,20.42
2023-05-19T11:58:04.629Z,21.83
2023-05-19T12:00:42.134Z,22.13
2023-05-19T12:03:11.687Z,21.92
2023-05-19T12:05:45.370Z,21.88
2023-05-19T12:08:14.908Z,22.00
2023-05-19T12:10:48.809Z,22.52
2023-05-19T12:13:17.910Z,21.73
2023-05-19T12:15:47.274Z,21.65
2023-05-19T12:18:16.438Z,22.30
2023-05-19T12:20:45.739Z,23.42
2023-05-19T12:23:15.880Z,22.95
2023-05-19T12:25:46.975Z,24.05
2023-05-19T12:28:18.049Z,24.25
2023-05-19T12:30:52.726Z,22.83
2023-05-19T12:33:22.915Z,23.02
2023-05-19T12:35:52.565Z,23.30
2023-05-19T12:38:22.248Z,23.25
2023-05-19T12:40:53.226Z,21.83
2023-05-19T12:43:22.977Z,21.92
2023-05-19T12:45:52.078Z,23.50
2023-05-19T12:48:23.766Z,21.83
2023-05-19T12:50:56.873Z,24.35
2023-05-19T12:53:29.406Z,23.95
2023-05-19T12:56:00.063Z,24.70
2023-05-19T12:58:29.138Z,24.25
2023-05-19T13:01:01.884Z,25.17
2023-05-19T13:03:31.136Z,24.35
2023-05-19T13:06:00.702Z,21.83
2023-05-19T13:08:30.666Z,23.02
2023-05-19T13:11:01.345Z,22.83
2023-05-19T13:13:30.384Z,23.67
2023-05-19T13:15:59.505Z,22.40
2023-05-19T13:18:28.640Z,21.88
2023-05-19T13:20:57.695Z,23.88
2023-05-19T13:23:27.203Z,23.20
2023-05-19T13:25:56.354Z,22.70
2023-05-19T13:28:27.212Z,22.50
2023-05-19T13:30:56.296Z,23.73
2023-05-19T13:33:25.374Z,23.60
2023-05-19T13:35:54.458Z,23.55
2023-05-19T13:38:23.572Z,23.10
2023-05-19T13:40:52.662Z,23.45
2023-05-19T13:43:22.418Z,22.63
2023-05-19T13:45:53.396Z,23.70
2023-05-19T13:48:22.553Z,22.50
2023-05-19T13:50:55.183Z,23.55
2023-05-19T13:53:24.245Z,23.00
2023-05-19T13:55:56.073Z,24.63
2023-05-19T13:58:25.631Z,24.17
2023-05-19T14:00:57.901Z,24.38
2023-05-19T14:03:27.230Z,24.58
2023-05-19T14:05:56.506Z,24.60
2023-05-19T14:08:25.637Z,23.73
2023-05-19T14:10:56.175Z,25.05
2023-05-19T14:13:33.687Z,22.90
2023-05-19T14:16:06.876Z,25.92
2023-05-19T14:18:35.988Z,24.52
2023-05-19T14:21:05.103Z,23.60
2023-05-19T14:23:34.359Z,23.33
2023-05-19T14:26:03.417Z,23.58
2023-05-19T14:28:32.407Z,23.77
2023-05-19T14:31:01.570Z,25.65
2023-05-19T14:33:35.079Z,24.77
2023-05-19T14:36:06.162Z,24.92
2023-05-19T14:38:35.256Z,24.48
2023-05-19T14:41:04.413Z,24.83
2023-05-19T14:43:33.441Z,24.63
2023-05-19T14:46:02.631Z,25.00
2023-05-19T14:48:33.293Z,24.17
2023-05-19T14:51:02.396Z,22.55
2023-05-19T14:53:31.425Z,26.23
2023-05-19T14:56:00.512Z,24.15
2023-05-19T14:58:29.592Z,23.58
2023-05-19T15:01:00.153Z,24.80
2023-05-19T15:03:29.339Z,24.35
2023-05-19T15:06:00.167Z,24.15
2023-05-19T15:08:29.202Z,23.58
2023-05-19T15:10:58.227Z,25.23
2023-05-19T15:13:27.374Z,24.65
2023-05-19T15:16:08.314Z,24.48
2023-05-19T15:18:45.153Z,24.45
2023-05-19T15:21:16.003Z,24.30
2023-05-19T15:23:45.119Z,24.23
2023-05-19T15:26:14.324Z,23.73
2023-05-19T15:28:43.446Z,24.83
2023-05-19T15:31:12.462Z,25.42
2023-05-19T15:33:43.547Z,25.52
2023-05-19T15:36:17.180Z,24.35
2023-05-19T15:38:47.838Z,23.98
2023-05-19T15:41:16.958Z,24.17
2023-05-19T15:43:47.351Z,24.38
2023-05-19T15:46:17.001Z,23.95
2023-05-19T15:48:46.221Z,24.88
2023-05-19T15:51:15.883Z,25.45
2023-05-19T15:53:46.647Z,23.73
2023-05-19T15:56:15.858Z,25.42
2023-05-19T15:58:45.168Z,24.27
2023-05-19T16:01:14.629Z,24.38
2023-05-19T16:03:44.693Z,24.88
2023-05-19T16:06:13.932Z,25.98
2023-05-19T16:08:43.053Z,25.35
2023-05-19T16:11:13.836Z,23.38
2023-05-19T16:13:42.877Z,25.35
2023-05-19T16:16:11.921Z,24.55
2023-05-19T16:18:41.045Z,23.77
2023-05-19T16:21:10.107Z,26.02
2023-05-19T16:23:39.104Z,26.25
2023-05-19T16:26:08.126Z,24.38
2023-05-19T16:28:38.871Z,26.15
2023-05-19T16:31:08.006Z,26.33
2023-05-19T16:33:37.091Z,25.50
2023-05-19T16:36:07.338Z,25.25
2023-05-19T16:38:36.389Z,24.92
2023-05-19T16:41:07.098Z,26.33
2023-05-19T16:43:38.019Z,24.70
2023-05-19T16:46:07.464Z,25.65
2023-05-19T16:48:36.533Z,23.63
2023-05-19T16:51:05.769Z,25.88
2023-05-19T16:53:35.005Z,26.08
2023-05-19T16:56:04.036Z,24.80
2023-05-19T16:58:33.178Z,25.00
2023-05-19T17:01:04.849Z,23.95
2023-05-19T17:03:33.981Z,24.60
2023-05-19T17:06:03.050Z,25.40
2023-05-19T17:08:32.198Z,24.65
2023-05-19T17:11:01.499Z,26.35
2023-05-19T17:13:34.436Z,25.13
2023-05-19T17:16:05.266Z,24.90
2023-05-19T17:18:34.351Z,24.85
2023-05-19T17:21:05.746Z,24.98
2023-05-19T17:23:35.025Z,26.25
2023-05-19T17:26:04.448Z,24.95
2023-05-19T17:28:33.569Z,24.48
2023-05-19T17:31:09.888Z,23.95
2023-05-19T17:33:39.042Z,24.45
2023-05-19T17:36:09.503Z,25.25
2023-05-19T17:38:42.703Z,24.70
2023-05-19T17:41:12.096Z,24.98
2023-05-19T17:43:42.194Z,25.50
2023-05-19T17:46:13.039Z,24.10
2023-05-19T17:48:42.169Z,23.77
2023-05-19T17:51:12.168Z,24.38
2023-05-19T17:53:41.806Z,23.98
2023-05-19T17:56:12.852Z,24.13
2023-05-19T17:58:42.464Z,24.10
2023-05-19T18:01:13.658Z,23.33
2023-05-19T18:03:45.578Z,23.42
2023-05-19T18:06:14.661Z,23.63
2023-05-19T18:08:46.862Z,27.30
2023-05-19T18:11:17.160Z,24.25
2023-05-19T18:13:46.464Z,24.25
2023-05-19T18:16:17.291Z,22.60
2023-05-19T18:18:50.980Z,23.73
2023-05-19T18:21:20.180Z,23.83
2023-05-19T18:23:49.213Z,20.85
2023-05-19T18:26:18.256Z,21.90
2023-05-19T18:28:47.458Z,23.70
2023-05-19T18:31:20.457Z,21.27
2023-05-19T18:33:50.718Z,20.85
2023-05-19T18:36:19.995Z,21.63
2023-05-19T18:38:49.106Z,18.52
2023-05-19T18:41:18.174Z,22.00
2023-05-19T18:43:49.577Z,20.30
2023-05-19T18:46:21.337Z,20.23
2023-05-19T18:48:53.707Z,19.45
2023-05-19T18:51:23.146Z,20.70
2023-05-19T18:53:52.224Z,19.00
2023-05-19T18:56:28.413Z,19.20
2023-05-19T18:58:57.437Z,19.42
2023-05-19T19:01:28.304Z,20.65
2023-05-19T19:03:57.552Z,20.77
2023-05-19T19:06:26.643Z,19.58
2023-05-19T19:08:57.247Z,19.77
2023-05-19T19:11:27.173Z,21.92
2023-05-19T19:13:57.542Z,21.65
2023-05-19T19:16:28.332Z,19.75
2023-05-19T19:18:57.563Z,20.35
2023-05-19T19:21:26.771Z,19.42
2023-05-19T19:23:55.864Z,18.20
2023-05-19T19:26:29.998Z,17.85
2023-05-19T19:28:59.083Z,19.23
2023-05-19T19:31:29.869Z,20.50
2023-05-19T19:34:01.739Z,20.08
2023-05-19T19:36:30.935Z,16.98
2023-05-19T19:39:00.459Z,18.05
2023-05-19T19:41:30.575Z,17.10
2023-05-19T19:43:59.614Z,18.70
2023-05-19T19:46:30.458Z,19.30
2023-05-19T19:49:01.263Z,17.48
2023-05-19T19:51:30.498Z,18.75
2023-05-19T19:53:59.914Z,15.95
2023-05-19T19:56:29.098Z,15.68
2023-05-19T19:58:59.388Z,17.02
2023-05-19T20:01:30.399Z,15.57
2023-05-19T20:03:59.573Z,16.77
2023-05-19T20:06:28.748Z,17.85
2023-05-19T20:08:57.933Z,18.00
2023-05-19T20:11:27.889Z,17.77
2023-05-19T20:13:57.044Z,17.73
2023-05-19T20:16:26.240Z,18.85
2023-05-19T20:18:56.980Z,19.48
2023-05-19T20:21:26.056Z,18.92
2023-05-19T20:23:55.167Z,19.75
2023-05-19T20:26:24.384Z,19.17
2023-05-19T20:28:53.407Z,19.52
2023-05-19T20:31:24.414Z,18.30
2023-05-19T20:33:53.509Z,18.52
2023-05-19T20:36:24.215Z,17.00
2023-05-19T20:38:53.922Z,16.95
2023-05-19T20:41:23.342Z,15.00
2023-05-19T20:43:52.439Z,17.88
2023-05-19T20:46:21.694Z,16.80
2023-05-19T20:48:50.737Z,15.10
2023-05-19T20:51:19.859Z,18.50
2023-05-19T20:53:50.627Z,18.00
2023-05-19T20:56:19.828Z,19.85
2023-05-19T20:58:48.970Z,17.17
2023-05-19T21:01:18.069Z,18.05
2023-05-19T21:03:47.148Z,18.30
2023-05-19T21:06:16.263Z,17.58
2023-05-19T21:08:45.404Z,17.13
2023-05-19T21:11:16.293Z,16.23
2023-05-19T21:13:45.374Z,15.13
2023-05-19T21:16:14.475Z,15.10
2023-05-19T21:18:43.570Z,15.38
2023-05-19T21:21:12.746Z,14.80
2023-05-19T21:23:41.838Z,15.63
2023-05-19T21:26:11.103Z,14.48
2023-05-19T21:28:41.985Z,15.57
2023-05-19T21:31:11.082Z,15.82
2023-05-19T21:33:40.133Z,14.55
2023-05-19T21:36:09.521Z,14.80
2023-05-19T21:38:38.585Z,13.00
2023-05-19T21:41:07.669Z,13.60
2023-05-19T21:43:36.826Z,12.65
2023-05-19T21:46:07.515Z,13.10
2023-05-19T21:48:36.649Z,15.75
2023-05-19T21:51:05.857Z,14.65
2023-05-19T21:53:34.946Z,15.77
2023-05-19T21:56:03.979Z,14.02
2023-05-19T21:58:33.028Z,13.25
2023-05-19T22:01:02.440Z,14.30
2023-05-19T22:03:33.256Z,14.27
2023-05-19T22:06:02.584Z,13.43
2023-05-19T22:08:31.731Z,14.07
2023-05-19T22:11:00.740Z,13.93
2023-05-19T22:13:29.794Z,15.23
2023-05-19T22:15:58.949Z,14.80
2023-05-19T22:18:28.083Z,16.10
2023-05-19T22:20:58.803Z,13.05
2023-05-19T22:23:27.863Z,15.48
2023-05-19T22:25:56.968Z,14.63
2023-05-19T22:28:26.201Z,17.67
2023-05-19T22:30:55.282Z,15.80
2023-05-19T22:33:24.335Z,14.48
2023-05-19T22:35:53.435Z,16.90
2023-05-19T22:38:24.129Z,17.65
2023-05-19T22:40:53.398Z,16.73
2023-05-19T22:43:22.400Z,17.02
2023-05-19T22:45:51.491Z,15.75
2023-05-19T22:48:20.577Z,15.32
2023-05-19T22:50:49.698Z,15.90
2023-05-19T22:53:18.783Z,15.23
2023-05-19T22:55:49.594Z,14.20
2023-05-19T22:58:18.657Z,15.98
2023-05-19T23:00:47.703Z,14.45
2023-05-19T23:03:16.983Z,14.02
2023-05-19T23:05:46.021Z,15.18
2023-05-19T23:08:15.036Z,16.80
2023-05-19T23:10:44.182Z,17.80
2023-05-19T23:13:16.170Z,16.73
2023-05-19T23:15:45.222Z,16.58
2023-05-19T23:18:15.928Z,15.15
2023-05-19T23:20:44.969Z,15.75
2023-05-19T23:23:14.048Z,15.38
2023-05-19T23:25:43.094Z,14.95
2023-05-19T23:28:13.803Z,17.17
2023-05-19T23:30:43.177Z,18.35
2023-05-19T23:33:12.379Z,16.95
2023-05-19T23:35:41.828Z,18.88
2023-05-19T23:38:10.923Z,18.05
2023-05-19T23:40:39.985Z,17.27
2023-05-19T23:43:09.272Z,17.35
2023-05-19T23:45:40.067Z,19.60
2023-05-19T23:48:09.243Z,17.85
2023-05-19T23:50:38.309Z,16.90
2023-05-19T23:53:07.672Z,20.38
2023-05-19T23:55:36.834Z,16.92
2023-05-19T23:58:06.466Z,16.75
